Dades meteomassalio
Diari Summary for Octubre 1, 2017 Units:  Metric    English   Both
« Previous Day
Next Day »
Diari Semanal Mensual Anual Personalitzat
  Maxima: Minima: Mijana:
Temperatura: -17.8 °C -10.4 °C -7.5 °C
Rosada: -17.8 °C -13.6 °C -11 °C
Humitat: Humidity % 47 % 68 %
Velocitat del vent: 0 km/h 0 km/h 22.5 km/h
Racha vent: 0 km/h - -
Vent:- - SW
Pressio: 0 hPa 34625.2 hPa -
Pluja: 0 mm    
Historical Graphs
 
 
Tabular Data for Octubre 1, 2017
Time Temperature Dew Point Pressure Wind Wind Speed Wind Gust Humidity Rainfall Rate (Hourly) solar Conditions
-17.8 °C -17.8 °C 0 hPa Calm     Humidity % 0 mm SolarRadiationWatts/m^2 W/m2 Conditions
00:01 -8.8 °C -10.1 °C 34659.1 hPa Calm     87 % 0 mm 0.0 W/m2 CLR
00:06 -8.8 °C -10.1 °C 34645.6 hPa Calm     87 % 0 mm 0.0 W/m2 CLR
00:11 -8.8 °C -10.1 °C 34645.6 hPa Calm     87 % 0 mm 0.0 W/m2 CLR
00:16 -9.1 °C -10.3 °C 34645.6 hPa Calm     87 % 0 mm 0.0 W/m2 CLR
00:21 -9.1 °C -10.3 °C 34659.1 hPa Calm     87 % 0 mm 0.0 W/m2 CLR
00:26 -9.1 °C -10.2 °C 34645.6 hPa Calm     88 % 0 mm 0.0 W/m2 CLR
00:31 -9.1 °C -10.3 °C 34645.6 hPa Calm     87 % 0 mm 0.0 W/m2 CLR
00:37 -8.8 °C -10.1 °C 34659.1 hPa Calm     87 % 0 mm 0.0 W/m2 CLR
00:42 -9.1 °C -10.3 °C 34659.1 hPa Calm     87 % 0 mm 0.0 W/m2 CLR
00:47 -9.1 °C -10.3 °C 34659.1 hPa Calm     87 % 0 mm 0.0 W/m2 CLR
00:52 -9.1 °C -10.3 °C 34645.6 hPa Calm     87 % 0 mm 0.0 W/m2 CLR
00:57 -8.8 °C -10.1 °C 34645.6 hPa SSE 10.3 km/h 10.3 km/h 87 % 0 mm 0.0 W/m2 CLR
01:02 -8.5 °C -9.7 °C 34645.6 hPa Calm     87 % 0 mm 0.0 W/m2 CLR
01:07 -8.5 °C -9.7 °C 34645.6 hPa Calm     87 % 0 mm 0.0 W/m2 CLR
01:12 -8.5 °C -9.6 °C 34645.6 hPa South 11.9 km/h 11.9 km/h 88 % 0 mm 0.0 W/m2 CLR
01:17 -8.2 °C -9.3 °C 34635.4 hPa South 12.9 km/h 12.9 km/h 88 % 0 mm 0.0 W/m2 CLR
01:22 -8.2 °C -9.4 °C 34635.4 hPa South 11.9 km/h 11.9 km/h 87 % 0 mm 0.0 W/m2 CLR
01:27 -8.5 °C -9.8 °C 34635.4 hPa Calm   0.8 km/h 86 % 0 mm 0.0 W/m2 CLR
01:32 -8.5 °C -9.8 °C 34635.4 hPa South 9 km/h   86 % 0 mm 0.0 W/m2 CLR
01:37 -8.5 °C -9.8 °C 34635.4 hPa South 15 km/h   86 % 0 mm 0.0 W/m2 CLR
01:42 -8.5 °C -9.9 °C 34635.4 hPa Calm     85 % 0 mm 0.0 W/m2 CLR
01:47 -8.5 °C -9.9 °C 34635.4 hPa South 11.9 km/h 11.9 km/h 85 % 0 mm 0.0 W/m2 CLR
01:52 -8.8 °C -10.2 °C 34645.6 hPa South 9 km/h 9 km/h 85 % 0 mm 0.0 W/m2 CLR
01:57 -8.8 °C -10.3 °C 34635.4 hPa Calm     84 % 0 mm 0.0 W/m2 CLR
02:02 -8.8 °C -10.3 °C 34635.4 hPa South 11.9 km/h 11.9 km/h 84 % 0 mm 0.0 W/m2 CLR
02:07 -9.1 °C -10.6 °C 34635.4 hPa SSE 15 km/h   84 % 0 mm 0.0 W/m2 CLR
02:12 -9.1 °C -10.6 °C 34635.4 hPa Calm     84 % 0 mm 0.0 W/m2 CLR
02:17 -9.1 °C -10.6 °C 34635.4 hPa Calm     84 % 0 mm 0.0 W/m2 CLR
02:22 -9.4 °C -10.9 °C 34635.4 hPa Calm     84 % 0 mm 0.0 W/m2 CLR
02:27 -9.4 °C -10.8 °C 34635.4 hPa Calm     85 % 0 mm 0.0 W/m2 CLR
02:32 -9.4 °C -10.7 °C 34635.4 hPa South 17.9 km/h 17.9 km/h 86 % 0 mm 0.0 W/m2 CLR
02:37 -9.4 °C -10.8 °C 34635.4 hPa South 29.8 km/h 29.8 km/h 85 % 0 mm 0.0 W/m2 CLR
02:42 -9.4 °C -10.9 °C 34625.2 hPa South 15.6 km/h 15.6 km/h 84 % 0 mm 0.0 W/m2 CLR
02:47 -9.1 °C -10.7 °C 34635.4 hPa Calm     83 % 0 mm 0.0 W/m2 CLR
02:52 -8.8 °C -10.4 °C 34635.4 hPa Calm     83 % 0 mm 0.0 W/m2 CLR
02:57 -8.8 °C -10.4 °C 34625.2 hPa Calm     83 % 0 mm 0.0 W/m2 CLR
03:02 -8.8 °C -10.4 °C 34625.2 hPa Calm     83 % 0 mm 0.0 W/m2 CLR
03:07 -9.1 °C -10.7 °C 34625.2 hPa Calm     83 % 0 mm 0.0 W/m2 CLR
03:12 -9.1 °C -10.6 °C 34635.4 hPa Calm     84 % 0 mm 0.0 W/m2 CLR
03:17 -9.1 °C -10.7 °C 34635.4 hPa Calm     83 % 0 mm 0.0 W/m2 CLR
03:22 -9.4 °C -11.1 °C 34635.4 hPa Calm     83 % 0 mm 0.0 W/m2 CLR
03:27 -9.4 °C -11.1 °C 34635.4 hPa Calm     83 % 0 mm 0.0 W/m2 CLR
03:32 -9.4 °C -11.1 °C 34635.4 hPa Calm     83 % 0 mm 0.0 W/m2 CLR
03:37 -9.4 °C -11.1 °C 34635.4 hPa Calm     83 % 0 mm 0.0 W/m2 CLR
03:42 -9.4 °C -10.9 °C 34635.4 hPa Calm     84 % 0 mm 0.0 W/m2 CLR
03:47 -9.4 °C -10.9 °C 34635.4 hPa Calm     84 % 0 mm 0.0 W/m2 CLR
03:52 -9.4 °C -11.2 °C 34625.2 hPa South 15.6 km/h 15.6 km/h 82 % 0 mm 0.0 W/m2 CLR
03:57 -9.4 °C -11.2 °C 34625.2 hPa South 10.3 km/h 10.3 km/h 81 % 0 mm 0.0 W/m2 CLR
04:02 -9.4 °C -11.4 °C 34625.2 hPa South 20.9 km/h 20.9 km/h 79 % 0 mm 0.0 W/m2 CLR
04:07 -9.4 °C -11.6 °C 34625.2 hPa SSW 9 km/h   78 % 0 mm 0.0 W/m2 CLR
04:12 -9.4 °C -11.7 °C 34625.2 hPa SSW 11.9 km/h 11.9 km/h 77 % 0 mm 0.0 W/m2 CLR
04:17 -9.4 °C -11.8 °C 34625.2 hPa SSW 15 km/h 15 km/h 76 % 0 mm 0.0 W/m2 CLR
04:22 -9.4 °C -11.9 °C 34625.2 hPa SSW 20.9 km/h 20.9 km/h 75 % 0 mm 0.0 W/m2 CLR
04:27 -9.4 °C -11.9 °C 34625.2 hPa SSW 11.9 km/h 11.9 km/h 75 % 0 mm 0.0 W/m2 CLR
04:32 -9.4 °C -12 °C 34625.2 hPa SSW 9 km/h 9 km/h 74 % 0 mm 0.0 W/m2 CLR
04:37 -9.4 °C -12.1 °C 34625.2 hPa SSW 17.9 km/h 17.9 km/h 73 % 0 mm 0.0 W/m2 CLR
04:42 -9.4 °C -12.1 °C 34625.2 hPa SSW 11.9 km/h 11.9 km/h 73 % 0 mm 0.0 W/m2 CLR
04:47 -9.4 °C -12.1 °C 34625.2 hPa SSW 9 km/h 9.3 km/h 73 % 0 mm 0.0 W/m2 CLR
04:53 -9.4 °C -12.2 °C 34625.2 hPa SSW 9 km/h   72 % 0 mm 0.0 W/m2 CLR
04:58 -9.4 °C -12.2 °C 34625.2 hPa Calm     72 % 0 mm 0.0 W/m2 CLR
05:03 -9.4 °C -12.2 °C 34635.4 hPa Calm     72 % 0 mm 0.0 W/m2 CLR
05:08 -9.1 °C -12.1 °C 34635.4 hPa SSW 9 km/h 9 km/h 71 % 0 mm 0.0 W/m2 CLR
05:13 -9.1 °C -12.1 °C 34635.4 hPa Calm   2.9 km/h 71 % 0 mm 0.0 W/m2 CLR
05:18 -9.1 °C -12.1 °C 34635.4 hPa SSW 9 km/h 9 km/h 71 % 0 mm 0.0 W/m2 CLR
05:23 -8.8 °C -11.8 °C 34635.4 hPa SSW 15 km/h 15 km/h 71 % 0 mm 0.0 W/m2 CLR
05:28 -8.8 °C -11.8 °C 34625.2 hPa SSW 20.9 km/h 20.9 km/h 71 % 0 mm 0.0 W/m2 CLR
05:33 -8.8 °C -11.8 °C 34625.2 hPa SSW 20.9 km/h 20.9 km/h 71 % 0 mm 0.0 W/m2 CLR
05:38 -8.8 °C -11.8 °C 34625.2 hPa SW 20.9 km/h 20.9 km/h 71 % 0 mm 0.0 W/m2 CLR
05:43 -8.8 °C -11.8 °C 34625.2 hPa SSW 15 km/h 15 km/h 71 % 0 mm 0.0 W/m2 CLR
05:48 -9.1 °C -12.1 °C 34625.2 hPa SSW 6 km/h 6 km/h 71 % 0 mm 0.0 W/m2 CLR
05:53 -9.1 °C -12.1 °C 34625.2 hPa SW 12.9 km/h 12.9 km/h 71 % 0 mm 0.0 W/m2 CLR
05:58 -9.1 °C -12.1 °C 34635.4 hPa SSW 9 km/h 9 km/h 71 % 0 mm 0.0 W/m2 CLR
06:03 -9.1 °C -12.1 °C 34635.4 hPa SSW 5.1 km/h 5.1 km/h 71 % 0 mm 0.0 W/m2 CLR
06:08 -9.4 °C -12.3 °C 34635.4 hPa SSW 9 km/h   71 % 0 mm 0.0 W/m2 CLR
06:13 -9.4 °C -12.3 °C 34635.4 hPa Calm     71 % 0 mm 0.0 W/m2 CLR
06:18 -9.4 °C -12.3 °C 34625.2 hPa Calm     71 % 0 mm 0.0 W/m2 CLR
06:23 -9.4 °C -12.3 °C 34625.2 hPa Calm     71 % 0 mm 0.0 W/m2 CLR
06:28 -9.4 °C -12.2 °C 34625.2 hPa Calm     72 % 0 mm 0.0 W/m2 CLR
06:33 -9.8 °C -12.6 °C 34625.2 hPa Calm     72 % 0 mm 0.0 W/m2 CLR
06:38 -9.8 °C -12.6 °C 34625.2 hPa Calm     72 % 0 mm 0.0 W/m2 CLR
06:43 -9.8 °C -12.6 °C 34625.2 hPa Calm     72 % 0 mm 0.0 W/m2 CLR
06:48 -10.1 °C -12.8 °C 34625.2 hPa Calm     72 % 0 mm 0.0 W/m2 CLR
06:53 -10.1 °C -12.8 °C 34635.4 hPa Calm     72 % 0 mm 0.0 W/m2 CLR
06:58 -10.1 °C -12.8 °C 34635.4 hPa SW 10.3 km/h 10.3 km/h 72 % 0 mm 0.0 W/m2 CLR
07:03 -10.1 °C -12.9 °C 34635.4 hPa Calm     71 % 0 mm 0.0 W/m2 CLR
07:08 -10.1 °C -12.9 °C 34635.4 hPa SSW 9 km/h 9 km/h 71 % 0 mm 0.0 W/m2 CLR
07:13 -10.1 °C -12.9 °C 34635.4 hPa SW 15 km/h 15 km/h 71 % 0 mm 0.0 W/m2 CLR
07:18 -10.1 °C -12.9 °C 34635.4 hPa SW 9 km/h 9 km/h 71 % 0 mm 0.0 W/m2 CLR
07:23 -10.1 °C -12.9 °C 34645.6 hPa SW 9 km/h 9 km/h 71 % 0 mm 0.0 W/m2 CLR
07:28 -10.1 °C -13.1 °C 34645.6 hPa SSW 15 km/h 15 km/h 70 % 0 mm 0.0 W/m2 CLR
07:33 -10.1 °C -13.2 °C 34635.4 hPa SSW 11.9 km/h 11.9 km/h 69 % 0 mm 0.0 W/m2 CLR
07:38 -10.1 °C -13.2 °C 34635.4 hPa SSW 15 km/h 15 km/h 69 % 0 mm 0.0 W/m2 CLR
07:43 -10.1 °C -13.2 °C 34635.4 hPa SSW 9 km/h 9 km/h 69 % 0 mm 0.0 W/m2 CLR
07:48 -10.1 °C -13.2 °C 34635.4 hPa SSW 3.1 km/h 3.1 km/h 69 % 0 mm 0.0 W/m2 OVC
07:53 -10.1 °C -13.2 °C 34635.4 hPa Calm     69 % 0 mm 0.0 W/m2 OVC
07:58 -10.1 °C -13.2 °C 34635.4 hPa Calm     69 % 0 mm 0.0 W/m2 OVC
08:03 -10.1 °C -13.2 °C 34635.4 hPa South 9 km/h 9 km/h 69 % 0 mm 0.0 W/m2 OVC
08:08 -10.4 °C -13.6 °C 34645.6 hPa SSW 6 km/h 6 km/h 68 % 0 mm 5.0 W/m2 OVC
08:13 -10.4 °C -13.4 °C 34645.6 hPa Calm     69 % 0 mm 9.0 W/m2 BKN
08:18 -10.4 °C -13.4 °C 34645.6 hPa SSW 10.3 km/h 10.3 km/h 69 % 0 mm 11.0 W/m2 BKN
08:23 -10.4 °C -13.6 °C 34645.6 hPa SW 23.8 km/h 23.8 km/h 68 % 0 mm 14.0 W/m2 BKN
08:28 -10.1 °C -13.4 °C 34645.6 hPa SW 29.8 km/h 29.8 km/h 67 % 0 mm 19.0 W/m2 BKN
08:33 -10.1 °C -13.4 °C 34645.6 hPa SSW 20.9 km/h 20.9 km/h 67 % 0 mm 25.0 W/m2 BKN
08:38 -9.4 °C -12.8 °C 34645.6 hPa SSW 17.9 km/h 17.9 km/h 67 % 0 mm 30.0 W/m2 BKN
08:43 -9.1 °C -12.7 °C 34645.6 hPa SW 26.9 km/h 26.9 km/h 66 % 0 mm 33.0 W/m2 BKN
08:48 -8.8 °C -12.3 °C 34645.6 hPa SSW 29.8 km/h 29.8 km/h 66 % 0 mm 39.0 W/m2 BKN
08:53 -8.5 °C -12.1 °C 34659.1 hPa SSW 26.9 km/h 26.9 km/h 66 % 0 mm 47.0 W/m2 SCT
08:58 -8.5 °C -12.1 °C 34659.1 hPa SSW 15 km/h 15 km/h 66 % 0 mm 53.0 W/m2 SCT
09:03 -8.5 °C -12.1 °C 34659.1 hPa SSW 18.2 km/h 18.2 km/h 66 % 0 mm 60.0 W/m2 SCT
09:08 -8.2 °C -11.8 °C 34659.1 hPa SW 26.9 km/h 26.9 km/h 66 % 0 mm 69.0 W/m2 SCT
09:13 -8.2 °C -11.8 °C 34659.1 hPa West 33.6 km/h 33.6 km/h 66 % 0 mm 79.0 W/m2 FEW
09:18 -8.2 °C -11.8 °C 34659.1 hPa SSW 41.7 km/h 41.7 km/h 66 % 0 mm 83.0 W/m2 FEW
09:23 -8.2 °C -11.8 °C 34659.1 hPa South 33.6 km/h 33.6 km/h 66 % 0 mm 90.0 W/m2 FEW
09:28 -8.2 °C -11.6 °C 34669.3 hPa SW 26.9 km/h 26.9 km/h 67 % 0 mm 95.0 W/m2 CLR
09:33 -8.2 °C -11.8 °C 34669.3 hPa SSW 26.9 km/h 26.9 km/h 66 % 0 mm 107.0 W/m2 CLR
09:38 -7.9 °C -11.5 °C 34669.3 hPa SW 20.9 km/h 20.9 km/h 66 % 0 mm 111.0 W/m2 CLR
09:43 -7.9 °C -11.3 °C 34669.3 hPa SW 20.9 km/h 20.9 km/h 67 % 0 mm 114.0 W/m2 CLR
09:48 -7.9 °C -11.3 °C 34669.3 hPa SSW 32.8 km/h 32.8 km/h 67 % 0 mm 123.0 W/m2 CLR
09:53 -7.9 °C -11.3 °C 34669.3 hPa SSW 29.8 km/h 29.8 km/h 67 % 0 mm 137.0 W/m2 CLR
09:58 -7.9 °C -11.3 °C 34669.3 hPa SW 29.8 km/h 29.8 km/h 67 % 0 mm 148.0 W/m2 CLR
10:03 -7.9 °C -11.3 °C 34669.3 hPa SW 18.2 km/h 18.2 km/h 67 % 0 mm 155.0 W/m2 CLR
10:09 -7.9 °C -11.3 °C 34682.8 hPa SSW 29.8 km/h 29.8 km/h 67 % 0 mm 162.0 W/m2 CLR
10:14 -7.9 °C -11.3 °C 34669.3 hPa SSW 11.9 km/h 11.9 km/h 67 % 0 mm 167.0 W/m2 CLR
10:19 -7.9 °C -11.3 °C 34669.3 hPa SW 29.8 km/h 29.8 km/h 67 % 0 mm 178.0 W/m2 CLR
10:24 -7.6 °C -11.2 °C 34669.3 hPa SW 17.9 km/h 17.9 km/h 66 % 0 mm 185.0 W/m2 CLR
10:29 -7.6 °C -11.3 °C 34669.3 hPa SSW 26.9 km/h 26.9 km/h 65 % 0 mm 190.0 W/m2 CLR
10:34 -7.6 °C -11.4 °C 34669.3 hPa SW 38.8 km/h 38.8 km/h 64 % 0 mm 197.0 W/m2 CLR
10:39 -7.6 °C -11.6 °C 34669.3 hPa SW 36.2 km/h 36.2 km/h 63 % 0 mm 214.0 W/m2 CLR
10:44 -7.6 °C -11.8 °C 34669.3 hPa SW 38.8 km/h 38.8 km/h 61 % 0 mm 255.0 W/m2 CLR
10:49 -7.3 °C -11.7 °C 34669.3 hPa SW 35.7 km/h 35.7 km/h 60 % 0 mm 297.0 W/m2 CLR
10:54 -7.3 °C -11.8 °C 34669.3 hPa SSW 41.7 km/h 41.7 km/h 59 % 0 mm 308.0 W/m2 CLR
10:59 -7.3 °C -12 °C 34669.3 hPa SW 38.8 km/h 38.8 km/h 58 % 0 mm 294.0 W/m2 CLR
11:04 -7 °C -11.7 °C 34669.3 hPa SW 29.8 km/h 29.8 km/h 58 % 0 mm 322.0 W/m2 CLR
11:09 -7 °C -12.1 °C 34669.3 hPa SW 47.6 km/h 47.6 km/h 55 % 0 mm 316.0 W/m2 CLR
11:14 -7 °C -12.4 °C 34669.3 hPa WSW 46.7 km/h 46.7 km/h 53 % 0 mm 311.0 W/m2 CLR
11:19 -7 °C -12.4 °C 34669.3 hPa SW 38.8 km/h 38.8 km/h 53 % 0 mm 320.0 W/m2 CLR
11:24 -7 °C -12.6 °C 34669.3 hPa SW 38.8 km/h 38.8 km/h 52 % 0 mm 376.0 W/m2 CLR
11:29 -6.7 °C -12.8 °C 34669.3 hPa WSW 44.7 km/h 44.7 km/h 49 % 0 mm 432.0 W/m2 CLR
11:34 -6.7 °C -12.6 °C 34669.3 hPa SW 35.7 km/h 35.7 km/h 50 % 0 mm 418.0 W/m2 CLR
11:39 -6.7 °C -12.6 °C 34669.3 hPa SW 53.6 km/h 53.6 km/h 50 % 0 mm 439.0 W/m2 CLR
11:44 -6.3 °C -12.6 °C 34669.3 hPa SSW 38.8 km/h 38.8 km/h 49 % 0 mm 543.0 W/m2 CLR
11:49 -6.3 °C -12.6 °C 34669.3 hPa SW 41.7 km/h 41.7 km/h 49 % 0 mm 462.0 W/m2 CLR
11:54 -6.1 °C -12.6 °C 34669.3 hPa SW 35.7 km/h 35.7 km/h 47 % 0 mm 578.0 W/m2 CLR
11:59 -6.1 °C -12.6 °C 34669.3 hPa SW 50.7 km/h 50.7 km/h 47 % 0 mm 408.0 W/m2 CLR
12:04 -6.1 °C -12.6 °C 34669.3 hPa SW 20.9 km/h 20.9 km/h 47 % 0 mm 480.0 W/m2 CLR
12:09 -6.1 °C -12.4 °C 34669.3 hPa SW 29.8 km/h 29.8 km/h 48 % 0 mm 510.0 W/m2 CLR
12:14 -6.1 °C -12.6 °C 34669.3 hPa SW 50.7 km/h 50.7 km/h 47 % 0 mm 478.0 W/m2 CLR
12:19 -6.1 °C -12.6 °C 34669.3 hPa WSW 47.6 km/h 47.6 km/h 47 % 0 mm 559.0 W/m2 CLR
12:24 -6.1 °C -12.6 °C 34669.3 hPa SW 50.7 km/h 50.7 km/h 47 % 0 mm 464.0 W/m2 CLR
12:29 -6.1 °C -12.4 °C 34669.3 hPa SSW 44.7 km/h 44.7 km/h 48 % 0 mm 415.0 W/m2 CLR
12:34 -6.1 °C -12.4 °C 34682.8 hPa SSW 38.8 km/h 38.8 km/h 48 % 0 mm 410.0 W/m2 CLR
12:39 -6.1 °C -12.4 °C 34682.8 hPa WSW 35.7 km/h 35.7 km/h 48 % 0 mm 684.0 W/m2 CLR
12:44 -6.1 °C -12.2 °C 34682.8 hPa SW 50.7 km/h 50.7 km/h 49 % 0 mm 346.0 W/m2 CLR
12:49 -6.1 °C -11.9 °C 34682.8 hPa WSW 50.7 km/h 50.7 km/h 51 % 0 mm 399.0 W/m2 CLR
12:50 -6.1 °C -11.7 °C 34682.8 hPa West 50.7 km/h 50.7 km/h 52 % 0 mm 399.0 W/m2 CLR
12:55 -6.1 °C -11.3 °C 34682.8 hPa WSW 50.7 km/h 50.7 km/h 55 % 0 mm 420.0 W/m2 CLR
13:00 -6.1 °C -11.1 °C 34682.8 hPa West 50.7 km/h 50.7 km/h 56 % 0 mm 450.0 W/m2 CLR
13:05 -6.1 °C -10.9 °C 34669.3 hPa WSW 62.6 km/h 62.6 km/h 57 % 0 mm 392.0 W/m2 CLR
13:10 -6.1 °C -10.8 °C 34669.3 hPa WSW 32.8 km/h 32.8 km/h 58 % 0 mm 417.0 W/m2 CLR
13:15 -6.1 °C -10.8 °C 34669.3 hPa WSW 29.8 km/h 29.8 km/h 58 % 0 mm 563.0 W/m2 CLR
13:20 -5.7 °C -10.8 °C 34669.3 hPa SW 50.7 km/h 50.7 km/h 56 % 0 mm 788.0 W/m2 CLR
13:25 -5.4 °C -10.6 °C 34669.3 hPa SW 38.8 km/h 38.8 km/h 56 % 0 mm 788.0 W/m2 CLR
13:30 -5.1 °C -10.4 °C 34659.1 hPa SW 59.5 km/h 59.5 km/h 55 % 0 mm 1004.0 W/m2 CLR
13:35 -5.4 °C -10.6 °C 34659.1 hPa WSW 57 km/h 57 km/h 56 % 0 mm 355.0 W/m2 CLR
13:40 -5.4 °C -10.4 °C 34659.1 hPa SSW 35.7 km/h 35.7 km/h 57 % 0 mm 425.0 W/m2 CLR
13:45 -5.4 °C -10.6 °C 34659.1 hPa SW 38.8 km/h 38.8 km/h 56 % 0 mm 381.0 W/m2 CLR
13:50 -5.7 °C -10.8 °C 34659.1 hPa West 47.6 km/h 47.6 km/h 56 % 0 mm 401.0 W/m2 CLR
13:55 -5.7 °C -10.8 °C 34659.1 hPa WSW 50.7 km/h 50.7 km/h 56 % 0 mm 392.0 W/m2 CLR
14:00 -5.4 °C -10.6 °C 34645.6 hPa West 44.7 km/h 44.7 km/h 56 % 0 mm 364.0 W/m2 CLR
14:05 -5.7 °C -10.8 °C 34645.6 hPa WSW 47.6 km/h 47.6 km/h 56 % 0 mm 399.0 W/m2 CLR
14:10 -5.7 °C -10.8 °C 34645.6 hPa West 41.4 km/h 41.4 km/h 56 % 0 mm 515.0 W/m2 CLR
14:15 -5.7 °C -10.8 °C 34659.1 hPa SW 38.8 km/h 38.8 km/h 56 % 0 mm 394.0 W/m2 CLR
14:20 -5.7 °C -10.8 °C 34659.1 hPa West 50.7 km/h 50.7 km/h 56 % 0 mm 346.0 W/m2 CLR
14:25 -5.7 °C -10.7 °C 34659.1 hPa West 49.2 km/h 49.2 km/h 57 % 0 mm 334.0 W/m2 CLR
14:30 -5.7 °C -10.7 °C 34659.1 hPa SW 31.1 km/h 31.1 km/h 57 % 0 mm 339.0 W/m2 CLR
14:35 -5.7 °C -10.7 °C 34659.1 hPa WSW 32.8 km/h 32.8 km/h 57 % 0 mm 325.0 W/m2 CLR
14:40 -5.7 °C -10.5 °C 34659.1 hPa West 44.1 km/h 44.1 km/h 58 % 0 mm 345.0 W/m2 CLR
14:45 -5.7 °C -10.5 °C 34659.1 hPa West 47.6 km/h 47.6 km/h 58 % 0 mm 329.0 W/m2 CLR
14:50 -5.7 °C -10.4 °C 34659.1 hPa SW 50.7 km/h 50.7 km/h 59 % 0 mm 519.0 W/m2 CLR
14:55 -5.4 °C -10.1 °C 34659.1 hPa SW 50.7 km/h 50.7 km/h 59 % 0 mm 605.0 W/m2 CLR
15:00 -5.4 °C -10.1 °C 34659.1 hPa WSW 57 km/h 57 km/h 59 % 0 mm 642.0 W/m2 CLR
15:05 -5.1 °C -9.8 °C 34659.1 hPa West 56.6 km/h 56.6 km/h 59 % 0 mm 543.0 W/m2 CLR
15:10 -5.4 °C -10.1 °C 34659.1 hPa SW 50.7 km/h 50.7 km/h 59 % 0 mm 506.0 W/m2 CLR
15:15 -5.4 °C -10.1 °C 34659.1 hPa WSW 44.7 km/h 44.7 km/h 59 % 0 mm 459.0 W/m2 CLR
15:20 -5.4 °C -10.2 °C 34659.1 hPa West 49.2 km/h 49.2 km/h 58 % 0 mm 413.0 W/m2 CLR
15:25 -5.7 °C -10.4 °C 34659.1 hPa WSW 38.8 km/h 38.8 km/h 59 % 0 mm 408.0 W/m2 CLR
15:30 -5.7 °C -10.4 °C 34659.1 hPa SW 59.5 km/h 59.5 km/h 59 % 0 mm 455.0 W/m2 CLR
15:35 -5.4 °C -10.1 °C 34659.1 hPa WSW 50.7 km/h 50.7 km/h 59 % 0 mm 383.0 W/m2 CLR
15:40 -5.7 °C -10.4 °C 34659.1 hPa SW 53.6 km/h 53.6 km/h 59 % 0 mm 360.0 W/m2 CLR
15:45 -5.7 °C -10.2 °C 34659.1 hPa WSW 38.8 km/h 38.8 km/h 60 % 0 mm 429.0 W/m2 CLR
15:50 -5.7 °C -10.2 °C 34659.1 hPa SW 36.2 km/h 36.2 km/h 60 % 0 mm 339.0 W/m2 CLR
15:55 -5.7 °C -10.4 °C 34659.1 hPa SW 47.6 km/h 47.6 km/h 59 % 0 mm 283.0 W/m2 CLR
16:00 -6.1 °C -10.5 °C 34659.1 hPa SW 36.2 km/h 36.2 km/h 60 % 0 mm 285.0 W/m2 CLR
16:05 -6.1 °C -10.5 °C 34659.1 hPa SW 50.7 km/h 50.7 km/h 60 % 0 mm 338.0 W/m2 CLR
16:10 -5.7 °C -10.2 °C 34659.1 hPa West 50.7 km/h 50.7 km/h 60 % 0 mm 452.0 W/m2 CLR
16:15 -5.7 °C -10.2 °C 34645.6 hPa West 38.8 km/h 38.8 km/h 60 % 0 mm 323.0 W/m2 CLR
16:20 -5.7 °C -10.2 °C 34659.1 hPa SW 44.1 km/h 44.1 km/h 60 % 0 mm 309.0 W/m2 CLR
16:25 -5.7 °C -10.1 °C 34659.1 hPa SSW 32.8 km/h 32.8 km/h 61 % 0 mm 299.0 W/m2 CLR
16:30 -5.7 °C -10.2 °C 34659.1 hPa WNW 31.1 km/h 31.1 km/h 60 % 0 mm 323.0 W/m2 CLR
16:35 -6.1 °C -10.7 °C 34659.1 hPa SW 29.8 km/h 29.8 km/h 59 % 0 mm 315.0 W/m2 CLR
16:40 -6.1 °C -10.5 °C 34659.1 hPa WSW 29.8 km/h 29.8 km/h 60 % 0 mm 279.0 W/m2 CLR
16:45 -6.1 °C -10.8 °C 34659.1 hPa SW 41.7 km/h 41.7 km/h 58 % 0 mm 243.0 W/m2 CLR
16:50 -6.1 °C -10.7 °C 34659.1 hPa West 32.8 km/h 32.8 km/h 59 % 0 mm 221.0 W/m2 CLR
16:55 -6.1 °C -10.7 °C 34659.1 hPa West 29.8 km/h 29.8 km/h 59 % 0 mm 216.0 W/m2 CLR
17:00 -6.1 °C -10.5 °C 34659.1 hPa WSW 29.8 km/h 29.8 km/h 60 % 0 mm 211.0 W/m2 CLR
17:01 -6.1 °C -10.5 °C 34659.1 hPa WSW 29.8 km/h 29.8 km/h 60 % 0 mm 211.0 W/m2 CLR
17:06 -6.1 °C -10.5 °C 34659.1 hPa SW 26.9 km/h 26.9 km/h 60 % 0 mm 200.0 W/m2 CLR
17:11 -6.1 °C -10.5 °C 34659.1 hPa SW 29.8 km/h 29.8 km/h 60 % 0 mm 186.0 W/m2 CLR
17:16 -6.1 °C -10.4 °C 34659.1 hPa WSW 29.8 km/h 29.8 km/h 61 % 0 mm 160.0 W/m2 CLR
17:21 -6.1 °C -10.5 °C 34659.1 hPa West 35.7 km/h 35.7 km/h 60 % 0 mm 135.0 W/m2 CLR
17:26 -6.3 °C -10.8 °C 34645.6 hPa SW 26.9 km/h 26.9 km/h 60 % 0 mm 120.0 W/m2 CLR
17:31 -6.3 °C -10.8 °C 34659.1 hPa West 29.8 km/h 29.8 km/h 60 % 0 mm 118.0 W/m2 CLR
17:36 -6.3 °C -10.7 °C 34659.1 hPa West 9 km/h 9 km/h 61 % 0 mm 121.0 W/m2 CLR
17:41 -6.3 °C -10.7 °C 34659.1 hPa WSW 9 km/h 9 km/h 61 % 0 mm 118.0 W/m2 CLR
17:46 -6.1 °C -10.4 °C 34659.1 hPa WSW 32.8 km/h 32.8 km/h 61 % 0 mm 104.0 W/m2 CLR
17:51 -6.1 °C -10.2 °C 34659.1 hPa WSW 38.8 km/h 38.8 km/h 62 % 0 mm 90.0 W/m2 CLR
17:56 -6.1 °C -9.9 °C 34659.1 hPa WSW 29.8 km/h 29.8 km/h 64 % 0 mm 76.0 W/m2 CLR
18:01 -6.1 °C -9.9 °C 34659.1 hPa WSW 29.8 km/h 29.8 km/h 64 % 0 mm 74.0 W/m2 FEW
18:06 -6.1 °C -9.9 °C 34659.1 hPa SW 17.9 km/h 17.9 km/h 64 % 0 mm 79.0 W/m2 FEW
18:11 -6.1 °C -9.9 °C 34659.1 hPa SW 32.8 km/h 32.8 km/h 64 % 0 mm 86.0 W/m2 FEW
18:16 -6.1 °C -9.8 °C 34659.1 hPa SW 29.8 km/h 29.8 km/h 65 % 0 mm 90.0 W/m2 CLR
18:21 -6.1 °C -9.8 °C 34659.1 hPa SW 15 km/h 15 km/h 65 % 0 mm 88.0 W/m2 CLR
18:26 -6.1 °C -9.8 °C 34659.1 hPa WSW 29.8 km/h 29.8 km/h 65 % 0 mm 74.0 W/m2 CLR
18:31 -6.1 °C -9.8 °C 34659.1 hPa SW 23.8 km/h 23.8 km/h 65 % 0 mm 56.0 W/m2 FEW
18:36 -6.1 °C -9.8 °C 34659.1 hPa SW 33.6 km/h 33.6 km/h 65 % 0 mm 56.0 W/m2 SCT
18:41 -6.1 °C -9.8 °C 34659.1 hPa West 11.9 km/h 11.9 km/h 65 % 0 mm 54.0 W/m2 SCT
18:46 -6.1 °C -9.8 °C 34659.1 hPa WSW 29.8 km/h 29.8 km/h 65 % 0 mm 40.0 W/m2 BKN
18:51 -6.1 °C -9.8 °C 34659.1 hPa WSW 28.5 km/h 28.5 km/h 65 % 0 mm 39.0 W/m2 BKN
18:56 -6.1 °C -9.8 °C 34659.1 hPa SW 41.7 km/h 41.7 km/h 65 % 0 mm 30.0 W/m2 BKN
19:01 -6.1 °C -9.8 °C 34659.1 hPa WSW 41.7 km/h 41.7 km/h 65 % 0 mm 26.0 W/m2 BKN
19:06 -6.1 °C -9.8 °C 34659.1 hPa SW 29.8 km/h 29.8 km/h 65 % 0 mm 23.0 W/m2 BKN
19:11 -6.1 °C -9.7 °C 34659.1 hPa SW 15 km/h   66 % 0 mm 21.0 W/m2 BKN
19:16 -6.1 °C -9.7 °C 34659.1 hPa SW 29.8 km/h 29.8 km/h 66 % 0 mm 19.0 W/m2 BKN
19:21 -6.1 °C -9.7 °C 34659.1 hPa SW 35.7 km/h 35.7 km/h 66 % 0 mm 18.0 W/m2 BKN
19:26 -6.1 °C -9.7 °C 34659.1 hPa WSW 38.8 km/h 38.8 km/h 66 % 0 mm 14.0 W/m2 BKN
19:31 -6.1 °C -9.7 °C 34659.1 hPa SW 28.5 km/h 28.5 km/h 66 % 0 mm 9.0 W/m2 BKN
19:36 -6.1 °C -9.7 °C 34659.1 hPa SSW 26.9 km/h 26.9 km/h 66 % 0 mm 5.0 W/m2 OVC
19:41 -6.3 °C -9.9 °C 34659.1 hPa SW 9 km/h 9 km/h 67 % 0 mm 0.0 W/m2 OVC
19:46 -6.3 °C -9.9 °C 34659.1 hPa SW 12.9 km/h 12.9 km/h 67 % 0 mm 0.0 W/m2 OVC
19:52 -6.3 °C -9.9 °C 34659.1 hPa SW 9 km/h 9 km/h 67 % 0 mm 0.0 W/m2 OVC
19:57 -6.3 °C -9.9 °C 34659.1 hPa SW 10.3 km/h 10.3 km/h 67 % 0 mm 0.0 W/m2 CLR
20:02 -6.3 °C -9.8 °C 34659.1 hPa SW 9 km/h 9 km/h 68 % 0 mm 0.0 W/m2 CLR
20:07 -6.7 °C -10.2 °C 34659.1 hPa SW 15 km/h 15 km/h 67 % 0 mm 0.0 W/m2 CLR
20:12 -6.3 °C -9.8 °C 34659.1 hPa Calm     68 % 0 mm 0.0 W/m2 CLR
20:17 -6.7 °C -10.1 °C 34659.1 hPa Calm     68 % 0 mm 0.0 W/m2 CLR
20:22 -6.3 °C -9.8 °C 34659.1 hPa SW 15 km/h 15 km/h 68 % 0 mm 0.0 W/m2 CLR
20:27 -6.3 °C -9.8 °C 34669.3 hPa Calm     68 % 0 mm 0.0 W/m2 CLR
20:32 -6.3 °C -9.8 °C 34669.3 hPa Calm     68 % 0 mm 0.0 W/m2 CLR
20:37 -6.3 °C -9.8 °C 34669.3 hPa SW 17.9 km/h 17.9 km/h 68 % 0 mm 0.0 W/m2 CLR
20:42 -6.3 °C -9.8 °C 34669.3 hPa SW 11.9 km/h   68 % 0 mm 0.0 W/m2 CLR
20:47 -6.3 °C -9.8 °C 34669.3 hPa SW 9 km/h 9 km/h 68 % 0 mm 0.0 W/m2 CLR
20:52 -6.3 °C -9.8 °C 34669.3 hPa SW 9 km/h 9 km/h 68 % 0 mm 0.0 W/m2 CLR
20:57 -6.3 °C -9.8 °C 34669.3 hPa Calm     68 % 0 mm 0.0 W/m2 CLR
21:02 -6.3 °C -9.8 °C 34669.3 hPa SSW 23.3 km/h 23.3 km/h 68 % 0 mm 0.0 W/m2 CLR
21:07 -6.3 °C -9.8 °C 34669.3 hPa WSW 9 km/h 9 km/h 68 % 0 mm 0.0 W/m2 CLR
21:12 -6.3 °C -9.8 °C 34682.8 hPa Calm     68 % 0 mm 0.0 W/m2 CLR
21:17 -6.3 °C -9.8 °C 34682.8 hPa West 26.9 km/h 26.9 km/h 68 % 0 mm 0.0 W/m2 CLR
21:22 -6.3 °C -9.8 °C 34682.8 hPa SW 9 km/h 9 km/h 68 % 0 mm 0.0 W/m2 CLR
21:27 -6.3 °C -9.8 °C 34682.8 hPa SSW 9 km/h 9 km/h 68 % 0 mm 0.0 W/m2 CLR
21:32 -6.3 °C -9.8 °C 34682.8 hPa SW 18.2 km/h 18.2 km/h 68 % 0 mm 0.0 W/m2 CLR
21:37 -6.3 °C -9.8 °C 34682.8 hPa Calm     68 % 0 mm 0.0 W/m2 CLR
21:42 -6.3 °C -9.8 °C 34682.8 hPa WSW 15 km/h 15 km/h 68 % 0 mm 0.0 W/m2 CLR
21:47 -6.3 °C -9.8 °C 34682.8 hPa SSW 23.8 km/h 23.8 km/h 68 % 0 mm 0.0 W/m2 CLR
21:52 -6.3 °C -9.8 °C 34682.8 hPa WSW 20.9 km/h 20.9 km/h 68 % 0 mm 0.0 W/m2 CLR
21:57 -6.3 °C -9.8 °C 34682.8 hPa SW 35.7 km/h 35.7 km/h 68 % 0 mm 0.0 W/m2 CLR
22:02 -6.3 °C -9.8 °C 34682.8 hPa SW 26.9 km/h 26.9 km/h 68 % 0 mm 0.0 W/m2 CLR
22:07 -6.3 °C -9.8 °C 34682.8 hPa SW 41.7 km/h 41.7 km/h 68 % 0 mm 0.0 W/m2 CLR
22:12 -6.3 °C -9.8 °C 34693 hPa WSW 35.7 km/h 35.7 km/h 68 % 0 mm 0.0 W/m2 CLR
22:17 -6.3 °C -9.8 °C 34693 hPa SW 32.8 km/h 32.8 km/h 68 % 0 mm 0.0 W/m2 CLR
22:22 -6.3 °C -9.6 °C 34693 hPa SW 23.8 km/h 23.8 km/h 69 % 0 mm 0.0 W/m2 CLR
22:27 -6.3 °C -9.6 °C 34682.8 hPa WSW 23.8 km/h 23.8 km/h 69 % 0 mm 0.0 W/m2 CLR
22:32 -6.3 °C -9.6 °C 34682.8 hPa SSW 35.7 km/h 35.7 km/h 69 % 0 mm 0.0 W/m2 CLR
22:37 -6.7 °C -9.9 °C 34693 hPa WSW 29.8 km/h 29.8 km/h 69 % 0 mm 0.0 W/m2 CLR
22:42 -6.7 °C -9.8 °C 34693 hPa SW 29.8 km/h 29.8 km/h 70 % 0 mm 0.0 W/m2 CLR
22:47 -6.7 °C -9.8 °C 34693 hPa SW 38.8 km/h 38.8 km/h 70 % 0 mm 0.0 W/m2 CLR
22:52 -6.7 °C -9.8 °C 34693 hPa SW 23.8 km/h 23.8 km/h 70 % 0 mm 0.0 W/m2 CLR
22:57 -6.7 °C -9.8 °C 34693 hPa SSW 36.2 km/h 36.2 km/h 70 % 0 mm 0.0 W/m2 CLR
23:02 -6.7 °C -9.8 °C 34693 hPa SSW 29.8 km/h 29.8 km/h 70 % 0 mm 0.0 W/m2 CLR
23:07 -6.7 °C -9.7 °C 34693 hPa SSW 38.8 km/h 38.8 km/h 71 % 0 mm 0.0 W/m2 CLR
23:12 -6.7 °C -9.8 °C 34693 hPa SSW 9 km/h 9 km/h 70 % 0 mm 0.0 W/m2 CLR
23:17 -6.7 °C -9.7 °C 34693 hPa SW 41.7 km/h 41.7 km/h 71 % 0 mm 0.0 W/m2 CLR
23:22 -6.7 °C -9.7 °C 34693 hPa SW 9 km/h 9 km/h 71 % 0 mm 0.0 W/m2 CLR
23:27 -6.7 °C -9.7 °C 34703.1 hPa SSW 20.9 km/h 20.9 km/h 71 % 0 mm 0.0 W/m2 CLR
23:32 -7 °C -9.9 °C 34703.1 hPa SW 26.9 km/h 26.9 km/h 71 % 0 mm 0.0 W/m2 CLR
23:37 -7 °C -9.8 °C 34703.1 hPa Calm     72 % 0 mm 0.0 W/m2 CLR
23:42 -7 °C -9.8 °C 34693 hPa SSW 7.7 km/h 7.7 km/h 72 % 0 mm 0.0 W/m2 CLR
23:47 -7 °C -9.8 °C 34693 hPa SW 11.9 km/h 11.9 km/h 72 % 0 mm 0.0 W/m2 CLR
23:52 -7.3 °C -10.2 °C 34703.1 hPa Calm     72 % 0 mm 0.0 W/m2 CLR
23:53 -7.3 °C -10.2 °C 34703.1 hPa SSW 18.2 km/h 18.2 km/h 72 % 0 mm 0.0 W/m2 CLR
23:58 -7 °C -9.7 °C 34703.1 hPa SW 29.8 km/h 29.8 km/h 73 % 0 mm 0.0 W/m2 CLR
Lo Temps de Massalio
Compliments of Weather Underground - 1.25 mb